Cornelia, Georgia
Current Conditions -  °F | °C
As of 7:55 AM on Saturday 20 Dec 2014 (Local Time) from KTOC Reporting Station
Drizzle Drizzle  
Wind Chill: 43°   Ceiling: 4700
Heat Index: 43°   Visibility: 10mi
Dew Point: 42°   Wind: 0mph
Humidity: 97%   Direction: NA
Pressure: 30.19"   Gusts: NA
Location:  34.51°N, 83.53°W
Report Text: KTOC 201255Z AUTO 00000KT 10SM -DZ SCT033 BKN047 OVC050 06/06 A3019 RMK AO2 T00630058
Loading
Personal Weather Stations






























Interactive Weather Map New forecast layout! Learn more

10-Day Weather Forecast

Advertisements
Track Severe Weather on mobile